Time;durP1;ratioP1;P1;durP2;ratioP2;P2;SDS_P1;SDS_P2;PMS_P1;PMS_P2;Temp;Humidity;BMP_temperature;BMP_pressure;BME280_temperature;BME280_humidity;BME280_pressure;Samples;Min_cycle;Max_cycle;Signal;HPM_P1;HPM_P2
2023/08/30 00:02:23;;;;;;;6.40;5.45;;;18.40;62.70;;;;;;4914559;29;20088;-49
2023/08/30 00:04:57;;;;;;;10.07;6.40;;;18.40;62.80;;;;;;4914737;29;20751;-50
2023/08/30 00:07:29;;;;;;;7.15;5.75;;;18.40;62.90;;;;;;4913657;29;20055;-50
2023/08/30 00:09:58;;;;;;;7.38;6.18;;;18.40;63.00;;;;;;4912314;29;20518;-53
2023/08/30 00:12:34;;;;;;;7.30;6.60;;;18.40;63.00;;;;;;4915138;29;20670;-52
2023/08/30 00:15:01;;;;;;;6.65;5.95;;;18.40;63.10;;;;;;4914755;29;20040;-53
2023/08/30 00:17:28;;;;;;;7.15;6.45;;;18.40;63.20;;;;;;4912372;29;20125;-48
2023/08/30 00:19:59;;;;;;;7.13;6.43;;;18.40;63.30;;;;;;4914995;29;20579;-49
2023/08/30 00:22:28;;;;;;;7.45;6.32;;;18.30;63.30;;;;;;4913908;29;20131;-53
2023/08/30 00:24:58;;;;;;;6.90;6.20;;;18.40;63.40;;;;;;4913016;29;20044;-51
2023/08/30 00:27:39;;;;;;;6.68;5.82;;;18.30;63.30;;;;;;4913980;29;20332;-51
2023/08/30 00:30:09;;;;;;;9.60;7.07;;;18.30;63.70;;;;;;4912881;29;20048;-48
2023/08/30 00:32:35;;;;;;;6.70;6.07;;;18.30;63.20;;;;;;4914524;29;20083;-51
2023/08/30 00:35:05;;;;;;;7.32;6.15;;;18.30;63.30;;;;;;4929140;29;20041;-49
2023/08/30 00:37:32;;;;;;;6.20;5.60;;;18.30;63.40;;;;;;4913093;29;20092;-50
2023/08/30 00:40:01;;;;;;;6.85;6.25;;;18.30;63.50;;;;;;4913079;29;20104;-49
2023/08/30 00:42:33;;;;;;;7.07;6.00;;;18.30;63.50;;;;;;4929352;29;20131;-49
2023/08/30 00:45:00;;;;;;;7.68;6.05;;;18.30;63.60;;;;;;4928770;29;20048;-52
2023/08/30 00:47:27;;;;;;;6.68;6.07;;;18.30;63.70;;;;;;4909418;29;20056;-51
2023/08/30 00:49:56;;;;;;;6.60;5.90;;;18.30;63.70;;;;;;4912815;29;20142;-51
2023/08/30 00:52:24;;;;;;;7.38;6.00;;;18.30;63.70;;;;;;4914528;29;20040;-50
2023/08/30 00:54:50;;;;;;;6.25;5.65;;;18.30;63.70;;;;;;4912120;29;20479;-51
2023/08/30 00:57:17;;;;;;;6.45;5.85;;;18.30;63.60;;;;;;4914277;29;20408;-51
2023/08/30 00:59:45;;;;;;;7.10;6.25;;;18.30;63.50;;;;;;4926638;29;20583;-51
2023/08/30 01:02:15;;;;;;;7.35;6.70;;;18.30;63.50;;;;;;4913668;29;20036;-49
2023/08/30 01:04:42;;;;;;;9.63;6.97;;;18.30;63.50;;;;;;4914184;29;20044;-51
2023/08/30 01:07:08;;;;;;;7.82;6.65;;;18.20;63.50;;;;;;4912684;29;20055;-49
2023/08/30 01:09:37;;;;;;;9.20;7.15;;;18.20;63.70;;;;;;4912118;29;20126;-48
2023/08/30 01:12:33;;;;;;;7.03;6.43;;;18.20;63.80;;;;;;4928924;29;20111;-51
2023/08/30 01:15:09;;;;;;;10.45;8.00;;;18.30;64.50;;;;;;4912699;29;20472;-51
2023/08/30 01:17:39;;;;;;;9.13;7.43;;;18.20;64.00;;;;;;4910503;29;20134;-48
2023/08/30 01:20:18;;;;;;;8.73;7.85;;;18.20;64.00;;;;;;4914297;29;20040;-52
2023/08/30 01:23:12;;;;;;;10.35;8.00;;;18.30;64.10;;;;;;4925200;29;20048;-53
2023/08/30 01:26:07;;;;;;;8.35;6.80;;;18.30;64.70;;;;;;4907951;29;20051;-50
2023/08/30 01:28:37;;;;;;;7.18;6.40;;;18.30;64.20;;;;;;4911224;29;20430;-49
2023/08/30 01:31:09;;;;;;;9.23;8.20;;;18.30;64.20;;;;;;4928039;29;20091;-51
2023/08/30 01:33:36;;;;;;;8.98;7.30;;;18.30;64.30;;;;;;4911861;29;20300;-50
2023/08/30 01:36:09;;;;;;;8.98;8.07;;;18.40;64.40;;;;;;4914102;29;20131;-51
2023/08/30 01:38:41;;;;;;;10.13;8.70;;;18.40;64.60;;;;;;4910402;29;20062;-50
2023/08/30 01:41:08;;;;;;;10.75;7.50;;;18.40;64.50;;;;;;4914306;29;20040;-50
2023/08/30 01:43:37;;;;;;;9.50;8.52;;;18.40;64.40;;;;;;4927114;29;20052;-49
2023/08/30 01:46:13;;;;;;;8.38;7.57;;;18.50;64.60;;;;;;4924431;29;20411;-51
2023/08/30 01:48:42;;;;;;;8.60;7.60;;;18.50;64.80;;;;;;4911431;29;20319;-50
2023/08/30 01:51:14;;;;;;;7.55;6.85;;;18.50;64.60;;;;;;4914239;29;20039;-51
2023/08/30 01:53:44;;;;;;;9.27;8.00;;;18.50;64.60;;;;;;4920696;29;20135;-49
2023/08/30 01:56:13;;;;;;;8.30;7.45;;;18.50;64.70;;;;;;4909754;29;20036;-52
2023/08/30 01:58:39;;;;;;;9.80;8.48;;;18.60;65.30;;;;;;4925116;29;20619;-52
2023/08/30 02:01:08;;;;;;;10.27;8.27;;;18.60;64.70;;;;;;4928210;29;20055;-48
2023/08/30 02:03:34;;;;;;;9.68;8.45;;;18.60;64.70;;;;;;4927154;29;20083;-51
2023/08/30 02:06:11;;;;;;;9.20;8.02;;;18.60;64.80;;;;;;4913714;29;20462;-49
2023/08/30 02:08:48;;;;;;;10.13;8.88;;;18.60;65.00;;;;;;4919227;29;20392;-51
2023/08/30 02:11:22;;;;;;;10.05;8.68;;;18.60;64.70;;;;;;4928432;29;20048;-50
2023/08/30 02:13:52;;;;;;;9.68;8.65;;;18.60;64.60;;;;;;4912550;29;20044;-51
2023/08/30 02:16:19;;;;;;;10.32;8.55;;;18.60;64.50;;;;;;4913387;29;20507;-50
2023/08/30 02:18:54;;;;;;;10.18;9.18;;;18.60;64.40;;;;;;4910222;29;20178;-51
2023/08/30 02:21:21;;;;;;;12.40;9.65;;;18.60;64.40;;;;;;4928258;29;20111;-51
2023/08/30 02:23:55;;;;;;;11.93;9.20;;;18.60;64.20;;;;;;4912414;29;20062;-50
2023/08/30 02:26:27;;;;;;;10.55;9.00;;;18.60;64.30;;;;;;4910001;29;20115;-49
2023/08/30 02:28:54;;;;;;;10.00;8.75;;;18.60;64.20;;;;;;4907917;29;20135;-51
2023/08/30 02:31:24;;;;;;;9.18;8.27;;;18.60;64.20;;;;;;4913698;29;20064;-51
2023/08/30 02:33:53;;;;;;;10.60;8.90;;;18.60;64.30;;;;;;4926779;29;20056;-52
2023/08/30 02:36:22;;;;;;;11.30;9.35;;;18.60;64.30;;;;;;4912919;29;20728;-52
2023/08/30 02:38:49;;;;;;;12.07;9.57;;;18.60;64.40;;;;;;4910029;29;20040;-49
2023/08/30 02:41:16;;;;;;;11.07;9.75;;;18.60;64.40;;;;;;4912257;29;20127;-51
2023/08/30 02:43:45;;;;;;;10.07;9.02;;;18.50;64.50;;;;;;4926568;29;20144;-51
2023/08/30 02:46:12;;;;;;;12.38;9.48;;;18.50;64.60;;;;;;4913098;29;20127;-50
2023/08/30 02:48:41;;;;;;;10.63;9.27;;;18.50;64.50;;;;;;4924960;29;20083;-51
2023/08/30 02:51:08;;;;;;;9.75;8.75;;;18.50;64.80;;;;;;4913558;29;20103;-51
2023/08/30 02:53:35;;;;;;;9.13;7.72;;;18.50;64.60;;;;;;4926586;29;20051;-49
2023/08/30 02:56:04;;;;;;;9.23;8.32;;;18.50;64.70;;;;;;4926611;29;20113;-50
2023/08/30 02:58:30;;;;;;;11.15;9.98;;;18.50;64.80;;;;;;4910387;29;20052;-49
2023/08/30 03:01:04;;;;;;;10.07;8.98;;;18.50;64.90;;;;;;4913681;29;20040;-53
2023/08/30 03:03:31;;;;;;;11.27;9.35;;;18.50;64.80;;;;;;4930369;29;20051;-50
2023/08/30 03:06:01;;;;;;;10.02;9.07;;;18.50;64.90;;;;;;4931301;29;20067;-49
2023/08/30 03:08:28;;;;;;;12.57;10.35;;;18.50;64.90;;;;;;4927896;29;20047;-48
2023/08/30 03:10:56;;;;;;;10.80;9.55;;;18.40;64.90;;;;;;4931731;29;20044;-49
2023/08/30 03:13:22;;;;;;;10.93;9.32;;;18.40;65.10;;;;;;4930160;29;20147;-49
2023/08/30 03:15:51;;;;;;;11.48;10.25;;;18.50;65.30;;;;;;4931372;29;20051;-50
2023/08/30 03:18:20;;;;;;;10.13;9.13;;;18.40;65.30;;;;;;4925740;29;20131;-50
2023/08/30 03:20:47;;;;;;;11.20;9.50;;;18.40;66.00;;;;;;4931336;29;20147;-51
2023/08/30 03:23:17;;;;;;;10.95;9.80;;;18.50;65.60;;;;;;4929807;29;20066;-51
2023/08/30 03:25:44;;;;;;;11.35;9.85;;;18.50;65.60;;;;;;4928426;29;20095;-49
2023/08/30 03:28:13;;;;;;;13.25;10.27;;;18.50;65.50;;;;;;4910766;29;20104;-50
2023/08/30 03:30:40;;;;;;;13.00;10.60;;;18.50;65.40;;;;;;4912869;29;20515;-48
2023/08/30 03:33:07;;;;;;;11.57;10.35;;;18.50;65.20;;;;;;4915090;29;20051;-52
2023/08/30 03:35:35;;;;;;;13.52;11.02;;;18.50;65.30;;;;;;4930204;29;20112;-50
2023/08/30 03:38:07;;;;;;;15.35;11.73;;;18.50;65.40;;;;;;4925173;29;20057;-50
2023/08/30 03:40:35;;;;;;;12.02;10.82;;;18.50;65.50;;;;;;4930979;29;20044;-49
2023/08/30 03:43:03;;;;;;;14.80;10.93;;;18.60;65.40;;;;;;4929674;29;20052;-50
2023/08/30 03:45:33;;;;;;;13.32;10.88;;;18.50;65.60;;;;;;4929325;29;20103;-48
2023/08/30 03:48:01;;;;;;;11.45;10.27;;;18.60;65.40;;;;;;4911004;29;20060;-51
2023/08/30 03:50:30;;;;;;;12.15;10.85;;;18.50;65.30;;;;;;4914820;29;20048;-49
2023/08/30 03:52:56;;;;;;;13.45;10.57;;;18.60;65.20;;;;;;4914136;29;20108;-49
2023/08/30 03:55:23;;;;;;;11.60;10.50;;;18.60;65.40;;;;;;4927270;29;20475;-48
2023/08/30 03:57:50;;;;;;;12.98;10.10;;;18.60;65.60;;;;;;4929528;29;20210;-51
2023/08/30 04:00:16;;;;;;;11.32;9.52;;;18.60;65.60;;;;;;4927809;29;20052;-50
2023/08/30 04:02:44;;;;;;;11.30;10.10;;;18.60;65.80;;;;;;4915473;29;20585;-49
2023/08/30 04:05:13;;;;;;;13.02;11.63;;;18.60;65.90;;;;;;4930133;29;20052;-50
2023/08/30 04:07:44;;;;;;;15.93;11.25;;;18.60;65.80;;;;;;4922296;29;20581;-49
2023/08/30 04:10:15;;;;;;;11.90;9.90;;;18.60;66.00;;;;;;4928788;29;20150;-49
2023/08/30 04:12:42;;;;;;;10.82;9.73;;;18.60;65.70;;;;;;4927962;29;20111;-51
2023/08/30 04:15:12;;;;;;;11.68;10.35;;;18.60;65.70;;;;;;4930111;29;20051;-48
2023/08/30 04:17:41;;;;;;;12.60;10.05;;;18.60;65.80;;;;;;4912803;29;20071;-49
2023/08/30 04:20:12;;;;;;;12.23;9.70;;;18.70;65.80;;;;;;4929181;29;20047;-51
2023/08/30 04:22:41;;;;;;;11.68;10.48;;;18.70;65.70;;;;;;4923210;29;20103;-49
2023/08/30 04:25:11;;;;;;;11.50;10.40;;;18.70;65.70;;;;;;4914729;29;20099;-51
2023/08/30 04:27:40;;;;;;;10.63;9.38;;;18.70;65.80;;;;;;4925181;29;20503;-50
2023/08/30 04:30:10;;;;;;;;;;;18.70;65.90;;;;;;4925770;29;20104;-53
2023/08/30 04:32:37;;;;;;;11.65;8.68;;;18.70;65.60;;;;;;4929366;29;20354;-50
2023/08/30 04:35:04;;;;;;;12.70;9.65;;;18.70;65.30;;;;;;4912010;29;20076;-51
2023/08/30 04:37:31;;;;;;;11.43;9.85;;;18.70;65.40;;;;;;4926865;29;20151;-52
2023/08/30 04:39:58;;;;;;;10.50;9.18;;;18.70;65.70;;;;;;4913889;29;20048;-50
2023/08/30 04:42:26;;;;;;;11.35;10.25;;;18.70;65.80;;;;;;4929055;28;20052;-53
2023/08/30 04:44:54;;;;;;;10.30;9.27;;;18.70;65.80;;;;;;4928906;29;20044;-53
2023/08/30 04:47:22;;;;;;;12.35;11.00;;;18.70;65.90;;;;;;4910858;29;20440;-53
2023/08/30 04:49:52;;;;;;;13.05;11.38;;;18.70;66.00;;;;;;4913341;29;20542;-52
2023/08/30 04:52:19;;;;;;;12.38;10.93;;;18.70;65.90;;;;;;4929156;29;20063;-51
2023/08/30 04:54:48;;;;;;;13.05;10.98;;;18.70;65.80;;;;;;4913049;29;20048;-49
2023/08/30 04:57:17;;;;;;;14.65;11.98;;;18.70;65.90;;;;;;4910695;29;20070;-50
2023/08/30 04:59:45;;;;;;;12.43;10.32;;;18.70;65.70;;;;;;4907075;29;20056;-50
2023/08/30 05:02:12;;;;;;;12.13;10.88;;;18.70;65.70;;;;;;4911064;29;20048;-51
2023/08/30 05:04:50;;;;;;;11.40;10.23;;;18.70;65.70;;;;;;4927442;29;20095;-51
2023/08/30 05:07:17;;;;;;;12.70;11.40;;;18.60;65.60;;;;;;4911800;29;20087;-50
2023/08/30 05:09:45;;;;;;;12.40;11.20;;;18.70;65.70;;;;;;4930746;29;20044;-50
2023/08/30 05:12:12;;;;;;;12.85;10.82;;;18.70;65.60;;;;;;4919572;29;20063;-50
2023/08/30 05:14:40;;;;;;;12.30;10.43;;;18.70;65.40;;;;;;4920639;29;20511;-51
2023/08/30 05:17:10;;;;;;;12.25;10.82;;;18.70;65.40;;;;;;4926825;29;20099;-49
2023/08/30 05:19:37;;;;;;;13.10;10.68;;;18.60;65.30;;;;;;4914772;29;20689;-51
2023/08/30 05:22:04;;;;;;;10.75;9.65;;;18.60;65.30;;;;;;4917798;29;20036;-50
2023/08/30 05:24:31;;;;;;;11.13;10.02;;;18.60;65.20;;;;;;4911401;29;20115;-50
2023/08/30 05:26:58;;;;;;;12.02;10.55;;;18.60;65.30;;;;;;4910477;29;20044;-50
2023/08/30 05:29:26;;;;;;;11.10;9.95;;;18.60;65.40;;;;;;4923107;29;20062;-49
2023/08/30 05:31:52;;;;;;;10.52;9.45;;;18.60;65.40;;;;;;4930481;29;20055;-50
2023/08/30 05:34:39;;;;;;;12.63;10.38;;;18.60;65.50;;;;;;4905035;29;20063;-56
2023/08/30 05:37:29;;;;;;;10.52;9.50;;;18.60;65.50;;;;;;4919950;29;20070;-49
2023/08/30 05:39:57;;;;;;;11.02;9.77;;;18.60;65.40;;;;;;4916602;29;20091;-50
2023/08/30 05:42:24;;;;;;;12.10;9.15;;;18.60;65.70;;;;;;4913859;29;20518;-50
2023/08/30 05:44:51;;;;;;;11.68;9.55;;;18.60;65.50;;;;;;4913142;29;20044;-52
2023/08/30 05:47:18;;;;;;;12.15;9.52;;;18.60;65.40;;;;;;4909888;29;20048;-51
2023/08/30 05:49:45;;;;;;;11.23;10.15;;;18.60;65.40;;;;;;4927694;29;20048;-49
2023/08/30 05:52:12;;;;;;;10.43;9.07;;;18.70;65.40;;;;;;4933334;29;20171;-49
2023/08/30 05:54:40;;;;;;;18.27;11.15;;;18.70;65.30;;;;;;4923428;29;20505;-50
2023/08/30 05:57:07;;;;;;;12.00;9.90;;;18.70;65.10;;;;;;4920548;29;20128;-50
2023/08/30 05:59:35;;;;;;;10.52;9.23;;;18.70;65.20;;;;;;4926431;29;20417;-49
2023/08/30 06:02:02;;;;;;;10.45;9.38;;;18.70;65.20;;;;;;4909218;29;20499;-50
2023/08/30 06:04:28;;;;;;;11.40;10.30;;;18.70;65.20;;;;;;4912539;29;20048;-51
2023/08/30 06:06:55;;;;;;;11.30;9.60;;;18.70;65.30;;;;;;4912022;29;20047;-50
2023/08/30 06:09:22;;;;;;;10.77;9.50;;;18.70;65.30;;;;;;4911796;29;20556;-50
2023/08/30 06:11:49;;;;;;;12.15;8.77;;;18.70;65.10;;;;;;4912964;29;20071;-50
2023/08/30 06:14:15;;;;;;;10.07;8.95;;;18.70;65.20;;;;;;4913945;29;20040;-51
2023/08/30 06:16:44;;;;;;;10.90;9.15;;;18.70;65.10;;;;;;4913584;29;20501;-50
2023/08/30 06:19:11;;;;;;;10.00;8.75;;;18.70;65.20;;;;;;4910726;29;20725;-51
2023/08/30 06:21:38;;;;;;;10.50;8.65;;;18.70;64.90;;;;;;4902250;29;20612;-52
2023/08/30 06:24:05;;;;;;;10.20;8.57;;;18.70;64.90;;;;;;4908563;29;20123;-49
2023/08/30 06:26:31;;;;;;;13.07;9.32;;;18.70;64.90;;;;;;4922166;29;20124;-50
2023/08/30 06:28:58;;;;;;;12.25;8.25;;;18.70;65.00;;;;;;4906704;29;20040;-49
2023/08/30 06:31:32;;;;;;;10.32;8.93;;;18.80;65.10;;;;;;4911159;29;20052;-52
2023/08/30 06:33:59;;;;;;;11.27;7.93;;;18.80;64.90;;;;;;4907053;29;20052;-49
2023/08/30 06:36:26;;;;;;;10.38;7.90;;;18.80;64.80;;;;;;4927503;29;20044;-50
2023/08/30 06:38:53;;;;;;;11.00;8.35;;;18.80;65.00;;;;;;4906125;29;20101;-53
2023/08/30 06:41:20;;;;;;;10.65;7.93;;;18.90;65.20;;;;;;4909035;29;20044;-50
2023/08/30 06:43:46;;;;;;;10.15;8.07;;;18.90;64.90;;;;;;4911917;29;20127;-49
2023/08/30 06:46:13;;;;;;;10.45;7.43;;;19.00;64.90;;;;;;4913978;29;20067;-52
2023/08/30 06:48:39;;;;;;;10.07;7.90;;;19.10;64.80;;;;;;4912547;29;20427;-50
2023/08/30 06:51:06;;;;;;;7.85;7.00;;;19.10;64.60;;;;;;4907756;29;20130;-48
2023/08/30 06:53:33;;;;;;;7.50;6.80;;;19.20;64.60;;;;;;4911856;29;20079;-49
2023/08/30 06:56:00;;;;;;;8.50;7.28;;;19.30;64.10;;;;;;4913058;29;20515;-51
2023/08/30 06:58:27;;;;;;;7.88;6.07;;;19.40;63.80;;;;;;4906517;29;20044;-49
2023/08/30 07:00:56;;;;;;;7.32;6.40;;;19.40;63.70;;;;;;4910156;29;20036;-51
2023/08/30 07:03:23;;;;;;;13.93;6.63;;;19.50;63.60;;;;;;4912105;29;20032;-49
2023/08/30 07:05:53;;;;;;;7.43;6.45;;;19.60;63.40;;;;;;4913306;29;20048;-49
2023/08/30 07:08:19;;;;;;;7.53;6.25;;;19.70;63.00;;;;;;4908200;29;20092;-49
2023/08/30 07:10:46;;;;;;;7.18;5.68;;;19.80;62.60;;;;;;4912615;29;20707;-49
2023/08/30 07:13:13;;;;;;;6.35;5.75;;;19.80;62.60;;;;;;4912358;29;20534;-50
2023/08/30 07:15:40;;;;;;;9.18;5.60;;;19.80;62.30;;;;;;4910081;29;20133;-49
2023/08/30 07:18:08;;;;;;;5.78;5.25;;;19.90;62.20;;;;;;4911728;29;20075;-51
2023/08/30 07:20:36;;;;;;;6.18;5.22;;;20.00;62.20;;;;;;4912944;29;20131;-50
2023/08/30 07:23:03;;;;;;;5.95;5.38;;;20.00;61.90;;;;;;4912339;29;20051;-51
2023/08/30 07:25:32;;;;;;;5.85;5.25;;;20.00;61.40;;;;;;4908010;29;20123;-49
2023/08/30 07:28:00;;;;;;;5.53;4.93;;;20.10;61.40;;;;;;4910441;29;20107;-50
2023/08/30 07:30:28;;;;;;;5.85;4.68;;;20.10;61.30;;;;;;4904279;29;20108;-49
2023/08/30 07:32:54;;;;;;;8.82;5.03;;;20.20;61.10;;;;;;4902885;29;20157;-52
2023/08/30 07:35:21;;;;;;;7.05;4.82;;;20.30;61.00;;;;;;4911506;29;20478;-53
2023/08/30 07:37:48;;;;;;;4.93;4.40;;;20.30;61.00;;;;;;4910830;29;20560;-51
2023/08/30 07:40:14;;;;;;;6.80;5.25;;;20.40;61.00;;;;;;4912331;29;20658;-48
2023/08/30 07:42:41;;;;;;;6.28;4.70;;;20.50;61.00;;;;;;4906087;29;20047;-50
2023/08/30 07:45:09;;;;;;;6.72;4.43;;;20.50;60.70;;;;;;4906437;29;20048;-52
2023/08/30 07:47:36;;;;;;;5.28;4.78;;;20.60;60.30;;;;;;4911955;29;20115;-49
2023/08/30 07:50:05;;;;;;;5.78;5.10;;;20.60;59.90;;;;;;4921191;29;20604;-53
2023/08/30 07:52:32;;;;;;;5.80;4.03;;;20.70;59.60;;;;;;4917840;29;20090;-51
2023/08/30 07:55:12;;;;;;;7.18;4.00;;;20.70;60.10;;;;;;4914017;29;20052;-48
2023/08/30 07:57:39;;;;;;;5.00;4.50;;;20.70;59.30;;;;;;4915695;29;20055;-51
2023/08/30 08:00:06;;;;;;;6.88;4.65;;;20.80;59.00;;;;;;4912925;29;20613;-52
2023/08/30 08:02:37;;;;;;;6.00;4.40;;;20.80;59.40;;;;;;4928859;29;20133;-50
2023/08/30 08:05:04;;;;;;;6.40;4.60;;;20.80;59.30;;;;;;4915989;29;20495;-49
2023/08/30 08:07:31;;;;;;;5.28;3.80;;;20.80;59.00;;;;;;4913952;29;20060;-51
2023/08/30 08:09:57;;;;;;;4.00;3.60;;;20.80;59.30;;;;;;4916604;29;20127;-50
2023/08/30 08:12:25;;;;;;;5.38;4.13;;;20.90;59.00;;;;;;4916441;29;20135;-52
2023/08/30 08:14:52;;;;;;;5.50;4.00;;;20.90;58.80;;;;;;4916008;29;20139;-53
2023/08/30 08:17:18;;;;;;;5.03;4.53;;;20.90;58.60;;;;;;4914189;29;20079;-51
2023/08/30 08:19:45;;;;;;;5.40;4.05;;;20.90;58.60;;;;;;4913661;29;20388;-51
2023/08/30 08:22:12;;;;;;;5.15;3.83;;;20.80;59.20;;;;;;4914384;29;20121;-51
2023/08/30 08:24:39;;;;;;;7.22;4.88;;;20.80;59.20;;;;;;4926477;29;20602;-49
2023/08/30 08:27:05;;;;;;;5.95;4.28;;;20.70;59.60;;;;;;4913733;29;20526;-51
2023/08/30 08:29:32;;;;;;;5.65;4.35;;;20.70;59.90;;;;;;4910586;29;20327;-52
2023/08/30 08:31:59;;;;;;;6.35;3.92;;;20.60;60.10;;;;;;4914712;29;20036;-50
2023/08/30 08:34:26;;;;;;;5.68;4.53;;;20.50;60.40;;;;;;4914610;29;20048;-53
2023/08/30 08:36:53;;;;;;;5.35;4.07;;;20.50;61.40;;;;;;4914032;29;20115;-51
2023/08/30 08:39:20;;;;;;;4.60;4.07;;;20.40;61.50;;;;;;4912584;29;20075;-53
2023/08/30 08:41:46;;;;;;;5.13;4.30;;;20.30;62.00;;;;;;4914736;29;21519;-49
2023/08/30 08:44:14;;;;;;;6.60;4.32;;;20.20;62.00;;;;;;4914668;29;20590;-54
2023/08/30 08:46:41;;;;;;;6.40;4.43;;;20.20;63.10;;;;;;4914907;29;20123;-52
2023/08/30 08:49:11;;;;;;;5.10;4.35;;;20.10;63.60;;;;;;4910710;29;20056;-50
2023/08/30 08:51:39;;;;;;;5.97;4.35;;;20.10;64.00;;;;;;4908798;29;20131;-53
2023/08/30 08:54:06;;;;;;;4.55;3.90;;;20.10;64.30;;;;;;4913745;29;20102;-50
2023/08/30 08:56:34;;;;;;;4.25;3.78;;;20.20;64.90;;;;;;4918195;29;20158;-50
2023/08/30 08:59:01;;;;;;;4.65;4.07;;;20.20;65.10;;;;;;4906792;29;20032;-49
2023/08/30 09:01:28;;;;;;;5.22;4.15;;;20.20;65.40;;;;;;4914449;29;20131;-48
2023/08/30 09:04:06;;;;;;;5.32;4.15;;;20.30;65.00;;;;;;4914202;29;20040;-50
2023/08/30 09:06:34;;;;;;;3.88;3.50;;;20.40;64.60;;;;;;4917977;29;20051;-52
2023/08/30 09:09:03;;;;;;;4.72;3.42;;;20.40;64.50;;;;;;4907039;29;20043;-50
2023/08/30 09:11:30;;;;;;;4.65;3.63;;;20.40;64.40;;;;;;4919197;29;20055;-52
2023/08/30 09:14:16;;;;;;;4.93;2.90;;;20.40;64.20;;;;;;4912312;29;20044;-49
2023/08/30 09:16:53;;;;;;;4.10;2.75;;;20.50;63.60;;;;;;4918224;29;20040;-51
2023/08/30 09:19:20;;;;;;;3.03;2.72;;;20.50;63.60;;;;;;4920549;29;20070;-49
2023/08/30 09:21:52;;;;;;;4.80;2.80;;;20.50;63.90;;;;;;4912713;29;20048;-51
2023/08/30 09:24:20;;;;;;;4.85;3.10;;;20.50;64.10;;;;;;4914103;29;20040;-53
2023/08/30 09:26:51;;;;;;;3.70;3.00;;;20.50;63.70;;;;;;4912388;29;20166;-49
2023/08/30 09:29:20;;;;;;;4.20;2.83;;;20.50;63.10;;;;;;4910067;29;20112;-53
2023/08/30 09:31:52;;;;;;;3.67;2.50;;;20.50;63.20;;;;;;4913055;29;20098;-52
2023/08/30 09:34:28;;;;;;;4.40;2.72;;;20.40;63.40;;;;;;4912288;29;20410;-50
2023/08/30 09:36:55;;;;;;;2.97;2.53;;;20.40;63.60;;;;;;4926225;29;20072;-53
2023/08/30 09:39:22;;;;;;;4.05;2.85;;;20.30;63.50;;;;;;4911613;29;20047;-50
2023/08/30 09:41:50;;;;;;;3.60;3.30;;;20.30;64.10;;;;;;4913659;29;20072;-54
2023/08/30 09:44:23;;;;;;;5.05;3.67;;;20.20;64.10;;;;;;4913187;29;20059;-51
2023/08/30 09:46:54;;;;;;;4.63;3.58;;;20.20;65.80;;;;;;4911013;29;20063;-49
2023/08/30 09:49:25;;;;;;;4.53;3.53;;;20.10;65.90;;;;;;4912010;29;20521;-53
2023/08/30 09:51:54;;;;;;;4.40;3.92;;;20.10;65.90;;;;;;4913553;29;20056;-50
2023/08/30 09:54:23;;;;;;;5.10;2.85;;;20.00;65.70;;;;;;4911037;29;20074;-53
2023/08/30 09:56:55;;;;;;;3.85;3.45;;;19.90;65.90;;;;;;4914076;29;20127;-49
2023/08/30 09:59:23;;;;;;;3.38;2.80;;;19.80;65.90;;;;;;4922337;29;20419;-49
2023/08/30 10:01:52;;;;;;;3.47;2.95;;;19.70;66.00;;;;;;4910955;29;20060;-54
2023/08/30 10:04:20;;;;;;;3.55;3.13;;;19.60;66.00;;;;;;4917076;29;20035;-50
2023/08/30 10:06:47;;;;;;;4.50;3.30;;;19.50;66.40;;;;;;4926437;29;20064;-53
2023/08/30 10:09:15;;;;;;;4.13;3.75;;;19.50;67.00;;;;;;4911694;29;20146;-52
2023/08/30 10:11:46;;;;;;;3.13;2.83;;;19.40;67.10;;;;;;4911645;29;20079;-53
2023/08/30 10:14:13;;;;;;;7.07;3.85;;;19.30;68.00;;;;;;4916645;29;20044;-53
2023/08/30 10:16:45;;;;;;;3.85;3.47;;;19.30;68.00;;;;;;4910447;29;20530;-53
2023/08/30 10:19:19;;;;;;;4.03;3.67;;;19.20;68.70;;;;;;4911846;29;20136;-53
2023/08/30 10:22:02;;;;;;;3.60;3.30;;;19.20;69.60;;;;;;4911707;29;20045;-54
2023/08/30 10:24:33;;;;;;;4.43;3.35;;;19.20;69.20;;;;;;4913728;29;20083;-53
2023/08/30 10:27:14;;;;;;;3.63;3.22;;;19.20;68.90;;;;;;4909790;29;20036;-50
2023/08/30 10:29:45;;;;;;;4.32;3.15;;;19.20;68.70;;;;;;4910741;29;20499;-51
2023/08/30 10:32:12;;;;;;;3.17;2.88;;;19.10;68.70;;;;;;4911968;29;20079;-49
2023/08/30 10:34:39;;;;;;;4.30;3.47;;;19.10;69.30;;;;;;4910044;29;20144;-49
2023/08/30 10:37:10;;;;;;;3.08;2.78;;;19.10;69.70;;;;;;4910430;29;20426;-49
2023/08/30 10:39:39;;;;;;;2.90;2.28;;;19.10;69.80;;;;;;4909583;29;20037;-50
2023/08/30 10:42:09;;;;;;;2.35;2.15;;;19.10;69.70;;;;;;4912293;29;20123;-51
2023/08/30 10:44:50;;;;;;;2.72;2.53;;;19.20;69.80;;;;;;4912144;29;20095;-49
2023/08/30 10:47:37;;;;;;;3.10;2.47;;;19.20;70.80;;;;;;4913092;29;20044;-51
2023/08/30 10:50:10;;;;;;;3.35;3.00;;;19.30;70.10;;;;;;4907338;29;20047;-50
2023/08/30 10:52:37;;;;;;;2.90;2.60;;;19.30;70.10;;;;;;4913432;29;20071;-54
2023/08/30 10:55:13;;;;;;;2.30;2.10;;;19.40;69.80;;;;;;4912517;29;20147;-49
2023/08/30 10:57:45;;;;;;;2.47;2.28;;;19.40;70.20;;;;;;4901431;29;20051;-53
2023/08/30 11:00:15;;;;;;;2.87;2.57;;;19.40;69.80;;;;;;4906284;29;20040;-49
2023/08/30 11:02:48;;;;;;;2.38;2.17;;;19.50;70.00;;;;;;4903737;29;20794;-50
2023/08/30 11:05:22;;;;;;;2.90;2.42;;;19.50;70.00;;;;;;4905309;29;20040;-52
2023/08/30 11:07:52;;;;;;;2.83;2.10;;;19.50;70.10;;;;;;4905336;29;20044;-49
2023/08/30 11:10:19;;;;;;;2.58;2.38;;;19.50;69.50;;;;;;4911593;29;20100;-49
2023/08/30 11:12:49;;;;;;;2.95;2.53;;;19.50;69.60;;;;;;4909087;29;20160;-53
2023/08/30 11:15:16;;;;;;;3.70;2.95;;;19.50;69.70;;;;;;4913090;29;20052;-54
2023/08/30 11:17:44;;;;;;;3.05;2.63;;;19.40;69.50;;;;;;4912245;29;20119;-54
2023/08/30 11:20:19;;;;;;;5.13;3.08;;;19.40;69.60;;;;;;4922293;29;20120;-53
2023/08/30 11:22:48;;;;;;;2.60;2.40;;;19.40;69.80;;;;;;4908557;29;20787;-53
2023/08/30 11:25:16;;;;;;;2.72;2.50;;;19.40;70.10;;;;;;4909459;29;20411;-52
2023/08/30 11:27:45;;;;;;;3.70;2.30;;;19.50;70.50;;;;;;4911020;29;20044;-53
2023/08/30 11:30:12;;;;;;;3.17;2.97;;;19.50;70.60;;;;;;4914663;29;20043;-49
2023/08/30 11:32:42;;;;;;;2.50;2.35;;;19.70;70.70;;;;;;4913471;29;20044;-52
2023/08/30 11:35:10;;;;;;;2.95;2.65;;;19.70;70.60;;;;;;4906862;29;20663;-53
2023/08/30 11:37:37;;;;;;;3.17;2.83;;;19.80;70.50;;;;;;4916884;29;20040;-51
2023/08/30 11:40:06;;;;;;;3.55;3.05;;;19.80;70.30;;;;;;4919168;29;20775;-52
2023/08/30 11:42:33;;;;;;;3.00;2.80;;;19.90;69.80;;;;;;4914921;29;20485;-53
2023/08/30 11:45:01;;;;;;;3.13;2.92;;;19.90;69.60;;;;;;4914547;29;20047;-54
2023/08/30 11:47:28;;;;;;;3.00;2.58;;;19.90;69.60;;;;;;4903833;29;20055;-52
2023/08/30 11:49:59;;;;;;;2.97;2.72;;;20.00;69.80;;;;;;4906215;29;20056;-54
2023/08/30 11:52:26;;;;;;;2.95;2.75;;;20.00;70.10;;;;;;4912176;29;20052;-54
2023/08/30 11:54:54;;;;;;;2.58;2.33;;;19.90;69.40;;;;;;4902947;29;20040;-54
2023/08/30 11:57:21;;;;;;;2.65;2.45;;;19.90;69.80;;;;;;4901860;29;20064;-51
2023/08/30 11:59:49;;;;;;;2.33;2.13;;;19.90;69.60;;;;;;4908211;29;20100;-51
2023/08/30 12:02:17;;;;;;;2.38;2.20;;;19.80;69.80;;;;;;4912189;29;20076;-50
2023/08/30 12:04:45;;;;;;;3.45;3.15;;;19.80;69.90;;;;;;4923931;29;20040;-54
2023/08/30 12:07:23;;;;;;;2.08;1.90;;;19.70;70.50;;;;;;4912213;29;20408;-53
2023/08/30 12:09:50;;;;;;;1.98;1.77;;;19.70;70.90;;;;;;4911901;29;20404;-54
2023/08/30 12:12:16;;;;;;;2.28;2.08;;;19.70;70.50;;;;;;4926218;29;20044;-50
2023/08/30 12:14:43;;;;;;;2.08;1.88;;;19.70;71.00;;;;;;4906444;29;20504;-52
2023/08/30 12:17:12;;;;;;;2.38;2.15;;;19.70;71.10;;;;;;4905295;29;20120;-51
2023/08/30 12:19:40;;;;;;;2.03;1.83;;;19.70;71.40;;;;;;4962587;23;20449;-51
2023/08/30 12:22:10;;;;;;;2.10;2.00;;;19.70;71.40;;;;;;4990685;28;20054;-53
2023/08/30 12:24:46;;;;;;;2.70;2.13;;;19.70;71.40;;;;;;4991856;28;20070;-52
2023/08/30 12:27:14;;;;;;;3.08;2.10;;;19.80;72.40;;;;;;4987653;28;20117;-53
2023/08/30 12:29:43;;;;;;;2.30;2.10;;;19.80;72.20;;;;;;4993875;28;20065;-53
2023/08/30 12:32:10;;;;;;;2.42;2.22;;;19.90;72.40;;;;;;4991764;28;20101;-53
2023/08/30 12:34:38;;;;;;;2.33;2.15;;;20.00;72.00;;;;;;4986626;28;20097;-49
2023/08/30 12:37:05;;;;;;;2.22;2.13;;;20.10;72.00;;;;;;4986648;28;20117;-50
2023/08/30 12:39:32;;;;;;;2.10;1.90;;;20.20;72.50;;;;;;4990075;28;20080;-53
2023/08/30 12:41:59;;;;;;;2.17;2.08;;;20.30;71.70;;;;;;4985777;28;20038;-54
2023/08/30 12:44:26;;;;;;;2.08;1.98;;;20.30;71.20;;;;;;4982532;28;20092;-52
2023/08/30 12:46:52;;;;;;;2.03;1.83;;;20.40;71.10;;;;;;4982990;28;20034;-54
2023/08/30 12:49:19;;;;;;;2.10;1.90;;;20.40;71.00;;;;;;4984317;28;20066;-55
2023/08/30 12:51:46;;;;;;;2.90;2.60;;;20.50;70.90;;;;;;4987851;28;20078;-54
2023/08/30 12:54:12;;;;;;;2.50;2.30;;;20.50;70.70;;;;;;4991985;28;20049;-54